createdAt,value
2023-03-15T05:00:53.540Z,99.99
2023-03-15T05:01:53.407Z,99.99
2023-03-15T05:02:53.431Z,99.99
2023-03-15T05:03:55.052Z,99.99
2023-03-15T05:04:53.352Z,99.99
2023-03-15T05:05:53.330Z,99.99
2023-03-15T05:06:53.363Z,99.99
2023-03-15T05:07:53.314Z,99.99
2023-03-15T05:08:53.301Z,99.99
2023-03-15T05:09:53.293Z,99.99
2023-03-15T05:10:53.366Z,99.99
2023-03-15T05:11:53.268Z,99.99
2023-03-15T05:12:53.252Z,99.99
2023-03-15T05:13:53.221Z,99.99
2023-03-15T05:15:00.276Z,99.99
2023-03-15T05:15:53.248Z,99.99
2023-03-15T05:16:53.184Z,99.99
2023-03-15T05:17:53.161Z,99.99
2023-03-15T05:18:53.858Z,99.99
2023-03-15T05:19:53.148Z,99.99
2023-03-15T05:20:53.151Z,99.99
2023-03-15T05:21:53.161Z,99.99
2023-03-15T05:22:53.126Z,99.99
2023-03-15T05:23:53.082Z,99.99
2023-03-15T05:24:53.109Z,99.99
2023-03-15T05:25:53.071Z,99.99
2023-03-15T05:26:53.060Z,99.99
2023-03-15T05:27:53.115Z,99.99
2023-03-15T05:28:53.039Z,99.99
2023-03-15T05:29:53.046Z,99.99
2023-03-15T05:30:53.032Z,99.99
2023-03-15T05:31:53.058Z,99.99
2023-03-15T05:32:53.103Z,99.99
2023-03-15T05:33:53.024Z,99.99
2023-03-15T05:34:52.976Z,99.99
2023-03-15T05:35:53.216Z,99.99
2023-03-15T05:36:52.937Z,99.99
2023-03-15T05:37:52.906Z,99.99
2023-03-15T05:38:52.920Z,99.99
2023-03-15T05:39:52.887Z,99.99
2023-03-15T05:40:52.906Z,99.99
2023-03-15T05:41:52.896Z,99.99
2023-03-15T05:42:52.869Z,99.99
2023-03-15T05:43:52.849Z,99.99
2023-03-15T05:44:52.834Z,99.99
2023-03-15T05:45:52.909Z,99.99
2023-03-15T05:46:52.814Z,99.99
2023-03-15T05:47:52.772Z,99.99
2023-03-15T05:48:52.782Z,99.99
2023-03-15T05:49:52.762Z,99.99
2023-03-15T05:50:52.741Z,99.99
2023-03-15T05:51:52.802Z,99.99
2023-03-15T05:52:52.711Z,99.99
2023-03-15T05:53:52.737Z,99.99
2023-03-15T05:54:52.688Z,99.99
2023-03-15T05:55:52.707Z,99.99
2023-03-15T05:56:52.676Z,99.99
2023-03-15T05:57:52.744Z,99.99
2023-03-15T05:58:52.635Z,99.99
2023-03-15T05:59:54.110Z,99.99
2023-03-15T06:00:52.676Z,99.99
2023-03-15T06:01:52.615Z,99.99
2023-03-15T06:02:52.581Z,99.99
2023-03-15T06:03:52.704Z,99.99
2023-03-15T06:04:52.553Z,99.99
2023-03-15T06:05:52.572Z,99.99
2023-03-15T06:06:52.601Z,99.99
2023-03-15T06:07:52.531Z,99.99
2023-03-15T06:08:52.500Z,99.99
2023-03-15T06:09:52.567Z,99.99
2023-03-15T06:10:52.731Z,99.99
2023-03-15T06:11:52.511Z,99.99
2023-03-15T06:12:52.462Z,99.99
2023-03-15T06:13:52.470Z,99.99
2023-03-15T06:14:52.466Z,99.99
2023-03-15T06:15:52.457Z,99.99
2023-03-15T06:16:52.490Z,99.99
2023-03-15T06:17:52.425Z,99.99
2023-03-15T06:18:52.398Z,99.99
2023-03-15T06:19:52.795Z,99.99
2023-03-15T06:20:52.395Z,99.99
2023-03-15T06:21:52.368Z,99.99
2023-03-15T06:22:52.337Z,99.99
2023-03-15T06:23:52.331Z,99.99
2023-03-15T06:24:52.317Z,99.99
2023-03-15T06:25:52.377Z,99.99
2023-03-15T06:26:52.275Z,99.99
2023-03-15T06:27:52.339Z,99.99
2023-03-15T06:28:52.247Z,99.99
2023-03-15T06:29:52.269Z,99.99
2023-03-15T06:30:52.258Z,99.99
2023-03-15T06:31:52.300Z,99.99
2023-03-15T06:32:52.242Z,99.48
2023-03-15T06:33:52.208Z,96.62
2023-03-15T06:34:52.189Z,94.92
2023-03-15T06:35:52.219Z,93.63
2023-03-15T06:36:52.149Z,92.14
2023-03-15T06:37:52.212Z,89.92
2023-03-15T06:38:52.121Z,88.36
2023-03-15T06:39:52.128Z,86.66
2023-03-15T06:40:52.101Z,86.21
2023-03-15T06:41:52.103Z,85.06
2023-03-15T06:42:52.069Z,85.17
2023-03-15T06:43:52.173Z,84.44
2023-03-15T06:44:52.052Z,83.78
2023-03-15T06:45:52.073Z,83.58
2023-03-15T06:46:52.016Z,82.92
2023-03-15T06:47:52.040Z,82.36
2023-03-15T06:48:51.994Z,81.95
2023-03-15T06:49:52.036Z,81.23
2023-03-15T06:50:51.965Z,80.50
2023-03-15T06:51:51.977Z,80.57
2023-03-15T06:52:51.937Z,80.15
2023-03-15T06:53:51.997Z,80.26
2023-03-15T06:54:51.986Z,79.22
2023-03-15T06:55:51.921Z,79.84
2023-03-15T06:56:51.893Z,79.43
2023-03-15T06:57:51.900Z,79.53
2023-03-15T06:58:51.870Z,79.33
2023-03-15T06:59:51.901Z,79.63
2023-03-15T07:00:52.265Z,79.60
2023-03-15T07:01:51.927Z,78.70
2023-03-15T07:02:51.862Z,78.77
2023-03-15T07:03:51.821Z,79.08
2023-03-15T07:04:51.853Z,79.01
2023-03-15T07:05:51.804Z,77.56
2023-03-15T07:06:51.874Z,76.39
2023-03-15T07:07:51.784Z,76.50
2023-03-15T07:08:51.767Z,75.77
2023-03-15T07:09:52.568Z,76.50
2023-03-15T07:10:51.753Z,76.29
2023-03-15T07:11:51.724Z,74.81
2023-03-15T07:12:51.689Z,73.57
2023-03-15T07:13:51.692Z,73.98
2023-03-15T07:14:51.676Z,74.40
2023-03-15T07:15:51.734Z,74.02
2023-03-15T07:16:58.653Z,74.08
2023-03-15T07:17:58.663Z,72.81
2023-03-15T07:18:51.609Z,73.33
2023-03-15T07:19:56.679Z,72.67
2023-03-15T07:20:52.620Z,72.06
2023-03-15T07:21:51.596Z,71.92
2023-03-15T07:22:51.556Z,70.79
2023-03-15T07:23:51.562Z,70.51
2023-03-15T07:24:51.547Z,72.06
2023-03-15T07:25:54.961Z,71.00
2023-03-15T07:26:51.505Z,70.79
2023-03-15T07:27:51.528Z,70.58
2023-03-15T07:28:51.481Z,70.17
2023-03-15T07:29:51.489Z,71.00
2023-03-15T07:30:51.611Z,70.76
2023-03-15T07:31:51.465Z,69.79
2023-03-15T07:32:51.527Z,69.90
2023-03-15T07:33:51.426Z,70.48
2023-03-15T07:34:51.403Z,68.56
2023-03-15T07:35:51.474Z,69.28
2023-03-15T07:36:51.378Z,69.31
2023-03-15T07:37:51.398Z,69.45
2023-03-15T07:38:51.353Z,70.68
2023-03-15T07:39:51.370Z,71.00
2023-03-15T07:40:51.439Z,69.96
2023-03-15T07:41:51.330Z,69.52
2023-03-15T07:42:51.298Z,68.66
2023-03-15T07:43:51.299Z,68.25
2023-03-15T07:44:51.295Z,68.32
2023-03-15T07:45:51.345Z,67.91
2023-03-15T07:46:51.306Z,68.12
2023-03-15T07:47:51.257Z,67.68
2023-03-15T07:48:51.218Z,67.65
2023-03-15T07:49:51.243Z,66.58
2023-03-15T07:50:51.196Z,65.38
2023-03-15T07:51:51.275Z,66.10
2023-03-15T07:52:51.168Z,65.97
2023-03-15T07:53:51.208Z,65.01
2023-03-15T07:54:51.146Z,64.19
2023-03-15T07:55:51.155Z,64.53
2023-03-15T07:56:51.113Z,64.56
2023-03-15T07:57:53.225Z,65.11
2023-03-15T07:58:51.090Z,66.06
2023-03-15T07:59:51.093Z,65.52
2023-03-15T08:00:51.072Z,65.31
2023-03-15T08:01:51.096Z,65.31
2023-03-15T08:02:51.087Z,65.59
2023-03-15T08:03:51.123Z,65.48
2023-03-15T08:04:51.007Z,65.69
2023-03-15T08:05:51.013Z,65.59
2023-03-15T08:06:50.991Z,65.08
2023-03-15T08:07:50.990Z,64.94
2023-03-15T08:08:50.962Z,64.60
2023-03-15T08:09:51.150Z,64.53
2023-03-15T08:10:50.932Z,64.32
2023-03-15T08:11:50.961Z,64.01
2023-03-15T08:12:50.925Z,64.63
2023-03-15T08:13:50.920Z,64.18
2023-03-15T08:14:50.879Z,65.52
2023-03-15T08:15:50.994Z,65.41
2023-03-15T08:16:50.854Z,64.66
2023-03-15T08:17:50.898Z,63.53
2023-03-15T08:18:50.824Z,64.79
2023-03-15T08:19:50.860Z,65.28
2023-03-15T08:20:50.793Z,65.52
2023-03-15T08:21:50.863Z,65.09
2023-03-15T08:22:50.778Z,66.42
2023-03-15T08:23:50.781Z,67.48
2023-03-15T08:24:50.739Z,67.82
2023-03-15T08:25:50.765Z,68.48
2023-03-15T08:26:50.761Z,69.09
2023-03-15T08:27:50.791Z,69.95
2023-03-15T08:28:50.696Z,70.57
2023-03-15T08:29:52.419Z,69.47
2023-03-15T08:30:50.673Z,70.29
2023-03-15T08:31:50.764Z,70.32
2023-03-15T08:32:50.769Z,70.01
2023-03-15T08:33:50.661Z,70.98
2023-03-15T08:34:50.618Z,71.19
2023-03-15T08:35:50.652Z,70.47
2023-03-15T08:36:50.604Z,70.77
2023-03-15T08:37:50.596Z,70.74
2023-03-15T08:38:50.624Z,70.12
2023-03-15T08:39:50.579Z,68.67
2023-03-15T08:40:50.540Z,69.50
2023-03-15T08:41:50.555Z,69.40
2023-03-15T08:42:50.513Z,70.43
2023-03-15T08:43:50.526Z,70.84
2023-03-15T08:44:50.536Z,69.88
2023-03-15T08:46:00.256Z,68.77
2023-03-15T08:46:51.520Z,68.46
2023-03-15T08:47:50.473Z,69.06
2023-03-15T08:48:50.441Z,69.06
2023-03-15T08:49:50.433Z,69.37
2023-03-15T08:50:50.463Z,69.74
2023-03-15T08:51:50.429Z,67.88
2023-03-15T08:52:50.390Z,67.16
2023-03-15T08:53:50.380Z,67.85
2023-03-15T08:54:50.341Z,67.34
2023-03-15T08:55:50.353Z,67.37
2023-03-15T08:56:50.520Z,67.34
2023-03-15T08:57:50.345Z,66.20
2023-03-15T08:58:50.298Z,66.07
2023-03-15T08:59:50.317Z,66.38
2023-03-15T09:00:50.277Z,65.86
2023-03-15T09:01:50.547Z,65.14
2023-03-15T09:02:50.248Z,64.31
2023-03-15T09:03:50.257Z,64.49
2023-03-15T09:04:52.421Z,63.04
2023-03-15T09:05:50.233Z,62.53
2023-03-15T09:06:50.232Z,63.35
2023-03-15T09:07:50.235Z,63.25
2023-03-15T09:08:50.170Z,62.12
2023-03-15T09:09:50.182Z,62.43
2023-03-15T09:10:50.144Z,62.60
2023-03-15T09:11:50.154Z,62.50
2023-03-15T09:12:50.187Z,62.88
2023-03-15T09:13:50.129Z,61.13
2023-03-15T09:14:50.093Z,61.33
2023-03-15T09:15:50.100Z,61.93
2023-03-15T09:16:50.081Z,61.52
2023-03-15T09:17:50.119Z,61.00
2023-03-15T09:18:50.363Z,59.97
2023-03-15T09:19:50.051Z,58.76
2023-03-15T09:20:50.022Z,59.66
2023-03-15T09:21:50.014Z,59.38
2023-03-15T09:22:49.993Z,61.03
2023-03-15T09:23:50.011Z,60.28
2023-03-15T09:24:51.455Z,60.59
2023-03-15T09:25:49.987Z,60.28
2023-03-15T09:26:49.948Z,61.21
2023-03-15T09:27:49.949Z,61.10
2023-03-15T09:28:49.915Z,61.28
2023-03-15T09:29:49.938Z,60.56
2023-03-15T09:30:49.973Z,58.78
2023-03-15T09:31:49.909Z,58.37
2023-03-15T09:32:49.939Z,58.47
2023-03-15T09:33:49.873Z,57.52
2023-03-15T09:34:49.843Z,57.01
2023-03-15T09:35:49.926Z,57.62
2023-03-15T09:36:49.806Z,57.73
2023-03-15T09:37:49.836Z,57.10
2023-03-15T09:38:49.783Z,56.57
2023-03-15T09:39:49.791Z,57.08
2023-03-15T09:40:49.817Z,57.88
2023-03-15T09:41:49.785Z,57.50
2023-03-15T09:42:49.744Z,56.74
2023-03-15T09:43:49.761Z,57.39
2023-03-15T09:44:49.715Z,57.08
2023-03-15T09:45:49.713Z,57.21
2023-03-15T09:46:49.824Z,57.93
2023-03-15T09:47:49.683Z,58.21
2023-03-15T09:48:49.664Z,58.14
2023-03-15T09:49:49.686Z,56.93
2023-03-15T09:50:49.653Z,57.06
2023-03-15T09:51:49.644Z,57.78
2023-03-15T09:52:49.662Z,58.40
2023-03-15T09:53:49.622Z,58.40
2023-03-15T09:54:49.592Z,58.29
2023-03-15T09:55:49.592Z,57.98
2023-03-15T09:56:49.552Z,58.09
2023-03-15T09:57:49.714Z,57.81
2023-03-15T09:58:49.601Z,57.70
2023-03-15T09:59:49.590Z,58.22
2023-03-15T10:00:49.511Z,58.01
2023-03-15T10:01:49.578Z,58.40
2023-03-15T10:02:49.501Z,58.29
2023-03-15T10:03:49.601Z,58.40
2023-03-15T10:04:49.579Z,58.84
2023-03-15T10:05:49.452Z,59.14
2023-03-15T10:06:49.466Z,59.66
2023-03-15T10:07:49.427Z,60.56
2023-03-15T10:08:49.422Z,60.35
2023-03-15T10:09:49.411Z,60.15
2023-03-15T10:10:49.457Z,60.46
2023-03-15T10:11:49.381Z,60.87
2023-03-15T10:12:49.388Z,60.05
2023-03-15T10:13:49.341Z,60.56
2023-03-15T10:14:49.380Z,60.77
2023-03-15T10:15:49.384Z,61.00
2023-03-15T10:16:49.469Z,61.28
2023-03-15T10:17:49.300Z,61.07
2023-03-15T10:18:49.318Z,61.10
2023-03-15T10:19:49.289Z,61.82
2023-03-15T10:20:49.270Z,61.82
2023-03-15T10:21:49.250Z,62.54
2023-03-15T10:22:49.342Z,62.65
2023-03-15T10:23:49.220Z,63.06
2023-03-15T10:24:49.229Z,62.34
2023-03-15T10:25:49.212Z,62.47
2023-03-15T10:26:49.200Z,63.09
2023-03-15T10:27:49.170Z,62.68
2023-03-15T10:28:49.206Z,62.88
2023-03-15T10:29:49.146Z,63.01
2023-03-15T10:30:49.179Z,63.01
2023-03-15T10:31:49.134Z,63.22
2023-03-15T10:32:49.119Z,63.43
2023-03-15T10:33:49.142Z,63.64
2023-03-15T10:34:49.118Z,63.43
2023-03-15T10:35:51.020Z,62.92
2023-03-15T10:36:49.081Z,62.60
2023-03-15T10:37:49.036Z,62.71
2023-03-15T10:38:49.038Z,62.92
2023-03-15T10:39:49.071Z,62.40
2023-03-15T10:40:49.011Z,62.50
2023-03-15T10:41:48.992Z,61.85
2023-03-15T10:42:49.178Z,61.44
2023-03-15T10:43:48.948Z,62.03
2023-03-15T10:44:48.967Z,61.61
2023-03-15T10:45:48.983Z,61.82
2023-03-15T10:46:49.010Z,61.82
2023-03-15T10:47:57.553Z,61.41
2023-03-15T10:48:49.899Z,60.97
2023-03-15T10:49:48.886Z,60.87
2023-03-15T10:50:48.977Z,60.84
2023-03-15T10:51:48.947Z,61.33
2023-03-15T10:52:51.309Z,61.33
2023-03-15T10:53:48.821Z,61.19
2023-03-15T10:54:52.580Z,60.65
2023-03-15T10:55:49.881Z,59.93
2023-03-15T10:56:48.814Z,59.63
2023-03-15T10:57:48.830Z,59.73
2023-03-15T10:59:05.365Z,59.39
2023-03-15T10:59:49.743Z,58.47
2023-03-15T11:00:48.744Z,58.34
2023-03-15T11:01:48.805Z,58.85
2023-03-15T11:02:48.788Z,58.72
2023-03-15T11:03:48.760Z,58.83
2023-03-15T11:04:48.706Z,58.69
2023-03-15T11:05:48.661Z,57.26
2023-03-15T11:06:48.672Z,57.15
2023-03-15T11:07:48.641Z,57.36
2023-03-15T11:08:48.658Z,57.36
2023-03-15T11:09:48.693Z,57.56
2023-03-15T11:10:48.720Z,57.33
2023-03-15T11:11:48.610Z,57.84
2023-03-15T11:12:48.605Z,57.64
2023-03-15T11:13:48.550Z,55.79
2023-03-15T11:14:48.564Z,54.79
2023-03-15T11:15:55.596Z,53.77
2023-03-15T11:16:48.534Z,53.77
2023-03-15T11:17:48.523Z,53.46
2023-03-15T11:18:48.516Z,54.08
2023-03-15T11:19:48.492Z,54.18
2023-03-15T11:20:48.573Z,53.87
2023-03-15T11:21:48.463Z,54.00
2023-03-15T11:22:48.466Z,55.02
2023-03-15T11:23:48.422Z,54.41
2023-03-15T11:24:48.500Z,53.49
2023-03-15T11:25:48.405Z,54.10
2023-03-15T11:26:48.473Z,54.72
2023-03-15T11:27:48.393Z,54.61
2023-03-15T11:28:52.383Z,55.05
2023-03-15T11:29:48.344Z,55.05
2023-03-15T11:30:48.734Z,55.57
2023-03-15T11:31:48.362Z,55.57
2023-03-15T11:32:48.513Z,55.26
2023-03-15T11:33:48.301Z,55.66
2023-03-15T11:34:48.314Z,55.49
2023-03-15T11:35:48.573Z,56.10
2023-03-15T11:36:55.677Z,56.51
2023-03-15T11:37:49.313Z,56.23
2023-03-15T11:38:48.274Z,56.15
2023-03-15T11:39:50.229Z,56.77
2023-03-15T11:40:48.288Z,57.82
2023-03-15T11:41:48.253Z,57.93
2023-03-15T11:42:48.238Z,57.52
2023-03-15T11:43:48.203Z,58.06
2023-03-15T11:44:48.197Z,57.65
2023-03-15T11:45:48.183Z,57.54
2023-03-15T11:46:48.200Z,56.95
2023-03-15T11:47:48.109Z,56.44
2023-03-15T11:48:48.112Z,56.23
2023-03-15T11:49:48.104Z,55.82
2023-03-15T11:50:48.139Z,55.95
2023-03-15T11:51:48.074Z,56.67
2023-03-15T11:52:48.143Z,56.98
2023-03-15T11:53:48.191Z,56.88
2023-03-15T11:54:48.051Z,57.09
2023-03-15T11:55:48.011Z,56.98
2023-03-15T11:56:48.036Z,57.18
2023-03-15T11:57:48.026Z,57.09
2023-03-15T11:58:48.052Z,56.85
2023-03-15T11:59:47.994Z,57.47
2023-03-15T12:00:47.988Z,56.23
2023-03-15T12:01:47.989Z,56.03
2023-03-15T12:02:47.950Z,56.23
2023-03-15T12:03:47.908Z,56.65
2023-03-15T12:04:48.001Z,56.75
2023-03-15T12:05:47.887Z,56.95
2023-03-15T12:06:47.891Z,57.16
2023-03-15T12:07:47.877Z,56.95
2023-03-15T12:08:47.877Z,57.06
2023-03-15T12:09:47.865Z,56.85
2023-03-15T12:10:47.890Z,57.26
2023-03-15T12:11:47.807Z,57.57
2023-03-15T12:12:47.816Z,57.68
2023-03-15T12:13:47.773Z,57.98
2023-03-15T12:14:47.793Z,58.19
2023-03-15T12:15:47.803Z,58.63
2023-03-15T12:16:47.831Z,58.22
2023-03-15T12:17:47.735Z,57.81
2023-03-15T12:18:47.722Z,57.70
2023-03-15T12:19:47.726Z,58.42
2023-03-15T12:20:47.736Z,58.63
2023-03-15T12:21:47.714Z,58.53
2023-03-15T12:22:47.681Z,58.63
2023-03-15T12:23:47.642Z,58.84
2023-03-15T12:24:47.697Z,59.25
2023-03-15T12:25:54.701Z,59.14
2023-03-15T12:26:48.646Z,59.45
2023-03-15T12:27:47.611Z,59.56
2023-03-15T12:28:47.611Z,59.86
2023-03-15T12:29:47.567Z,60.17
2023-03-15T12:30:47.691Z,60.21
2023-03-15T12:31:47.540Z,61.85
2023-03-15T12:32:47.590Z,63.60
2023-03-15T12:33:47.521Z,63.50
2023-03-15T12:34:47.553Z,63.92
2023-03-15T12:35:47.494Z,63.78
2023-03-15T12:36:47.550Z,63.37
2023-03-15T12:37:47.478Z,63.71
2023-03-15T12:38:47.471Z,63.81
2023-03-15T12:39:47.476Z,63.71
2023-03-15T12:40:47.441Z,64.77
2023-03-15T12:41:47.435Z,65.25
2023-03-15T12:42:47.477Z,65.15
2023-03-15T12:43:47.379Z,65.56
2023-03-15T12:44:47.391Z,65.56
2023-03-15T12:45:47.359Z,64.92
2023-03-15T12:46:47.353Z,63.85
2023-03-15T12:47:47.340Z,63.24
2023-03-15T12:48:47.383Z,63.45
2023-03-15T12:49:47.338Z,62.93
2023-03-15T12:50:47.322Z,62.10
2023-03-15T12:51:47.268Z,62.00
2023-03-15T12:52:47.299Z,61.59
2023-03-15T12:53:47.263Z,61.98
2023-03-15T12:54:47.678Z,61.94
2023-03-15T12:55:47.660Z,60.99
2023-03-15T12:56:47.238Z,59.96
2023-03-15T12:57:47.214Z,59.55
2023-03-15T12:58:47.207Z,59.42
2023-03-15T12:59:47.177Z,58.59
2023-03-15T13:00:47.270Z,59.52
2023-03-15T13:01:47.249Z,59.11
2023-03-15T13:02:47.202Z,59.83
2023-03-15T13:03:47.202Z,59.01
2023-03-15T13:04:47.137Z,58.70
2023-03-15T13:05:49.242Z,58.39
2023-03-15T13:06:48.124Z,57.46
2023-03-15T13:07:52.302Z,56.80
2023-03-15T13:08:48.092Z,58.03
2023-03-15T13:09:47.057Z,58.68
2023-03-15T13:10:47.174Z,58.16
2023-03-15T13:11:47.024Z,59.33
2023-03-15T13:12:47.029Z,58.29
2023-03-15T13:13:47.002Z,58.29
2023-03-15T13:14:47.008Z,57.68
2023-03-15T13:15:47.013Z,57.26
2023-03-15T13:16:47.047Z,57.78
2023-03-15T13:17:46.944Z,57.81
2023-03-15T13:18:46.964Z,56.67
2023-03-15T13:19:46.943Z,57.18
2023-03-15T13:20:46.934Z,57.91
2023-03-15T13:21:46.924Z,57.29
2023-03-15T13:22:55.231Z,57.18
2023-03-15T13:23:47.890Z,56.88
2023-03-15T13:24:46.890Z,57.18
2023-03-15T13:25:46.884Z,57.09
2023-03-15T13:26:46.870Z,56.77
2023-03-15T13:27:46.826Z,57.50
2023-03-15T13:28:46.836Z,57.81
2023-03-15T13:29:46.790Z,57.81
2023-03-15T13:30:46.860Z,57.81
2023-03-15T13:31:46.957Z,57.18
2023-03-15T13:32:46.831Z,57.29
2023-03-15T13:33:46.753Z,58.22
2023-03-15T13:34:46.749Z,57.70
2023-03-15T13:35:46.865Z,58.22
2023-03-15T13:36:46.727Z,58.63
2023-03-15T13:37:46.690Z,62.06
2023-03-15T13:38:46.719Z,65.88
2023-03-15T13:39:46.662Z,67.97
2023-03-15T13:40:46.668Z,69.31
2023-03-15T13:41:46.671Z,70.44
2023-03-15T13:42:46.649Z,71.20
2023-03-15T13:43:46.656Z,72.47
2023-03-15T13:44:46.652Z,73.39
2023-03-15T13:45:46.588Z,73.68
2023-03-15T13:46:46.719Z,73.57
2023-03-15T13:47:46.573Z,74.12
2023-03-15T13:48:46.589Z,74.29
2023-03-15T13:49:46.529Z,74.53
2023-03-15T13:50:46.539Z,75.15
2023-03-15T13:51:46.512Z,75.36
2023-03-15T13:52:46.608Z,74.91
2023-03-15T13:53:49.505Z,75.22
2023-03-15T13:54:46.517Z,75.43
2023-03-15T13:55:46.499Z,75.84
2023-03-15T13:56:49.513Z,76.39
2023-03-15T13:57:46.452Z,76.70
2023-03-15T13:58:46.524Z,76.60
2023-03-15T13:59:46.415Z,76.50
2023-03-15T14:00:46.417Z,76.94
2023-03-15T14:01:46.426Z,77.77
2023-03-15T14:02:46.431Z,78.42
2023-03-15T14:03:46.354Z,78.11
2023-03-15T14:04:46.416Z,78.18
2023-03-15T14:05:46.508Z,77.87
2023-03-15T14:06:46.330Z,77.77
2023-03-15T14:07:46.302Z,77.87
2023-03-15T14:08:46.323Z,78.18
2023-03-15T14:09:46.275Z,78.08
2023-03-15T14:10:46.286Z,77.98
2023-03-15T14:11:46.306Z,78.08
2023-03-15T14:12:46.265Z,77.63
2023-03-15T14:13:46.243Z,77.11
2023-03-15T14:14:46.211Z,76.81
2023-03-15T14:15:46.256Z,75.46
2023-03-15T14:17:03.000Z,75.70
2023-03-15T14:17:47.228Z,75.19
2023-03-15T14:18:46.151Z,75.19
2023-03-15T14:19:46.172Z,75.91
2023-03-15T14:20:46.135Z,76.43
2023-03-15T14:21:46.217Z,76.22
2023-03-15T14:22:46.113Z,76.32
2023-03-15T14:23:46.126Z,76.53
2023-03-15T14:24:46.087Z,76.29
2023-03-15T14:25:46.107Z,75.77
2023-03-15T14:26:46.045Z,75.32
2023-03-15T14:27:46.140Z,74.81
2023-03-15T14:28:46.041Z,74.05
2023-03-15T14:29:46.086Z,74.15
2023-03-15T14:30:46.002Z,73.60
2023-03-15T14:31:46.092Z,72.88
2023-03-15T14:32:46.062Z,72.64
2023-03-15T14:33:45.975Z,72.54
2023-03-15T14:34:45.972Z,73.02
2023-03-15T14:35:46.187Z,71.37
2023-03-15T14:36:45.946Z,71.69
2023-03-15T14:37:45.980Z,71.14
2023-03-15T14:38:45.903Z,71.03
2023-03-15T14:39:45.911Z,70.18
2023-03-15T14:40:45.903Z,71.00
2023-03-15T14:41:45.885Z,70.10
2023-03-15T14:42:45.953Z,70.31
2023-03-15T14:43:45.847Z,70.31
2023-03-15T14:44:45.821Z,69.83
2023-03-15T14:45:45.971Z,71.17
2023-03-15T14:46:45.847Z,71.58
2023-03-15T14:47:56.179Z,70.89
2023-03-15T14:48:46.763Z,71.20
2023-03-15T14:49:45.769Z,71.82
2023-03-15T14:50:45.868Z,71.72
2023-03-15T14:51:45.808Z,71.41
2023-03-15T14:52:45.718Z,71.41
2023-03-15T14:53:45.718Z,71.64
2023-03-15T14:54:45.692Z,71.64
2023-03-15T14:55:45.711Z,72.06
2023-03-15T14:56:45.689Z,71.64
2023-03-15T14:57:45.707Z,71.82
2023-03-15T14:58:45.656Z,71.51
2023-03-15T14:59:45.659Z,71.10
2023-03-15T15:00:45.637Z,71.51
2023-03-15T15:01:46.887Z,71.72
2023-03-15T15:02:45.737Z,71.61
2023-03-15T15:03:45.638Z,71.92
2023-03-15T15:04:45.574Z,71.82
2023-03-15T15:05:45.564Z,72.06
2023-03-15T15:06:45.584Z,72.27
2023-03-15T15:07:45.543Z,72.16
2023-03-15T15:08:45.547Z,72.58
2023-03-15T15:09:45.585Z,72.37
2023-03-15T15:10:45.511Z,72.40
2023-03-15T15:11:45.493Z,72.40
2023-03-15T15:12:48.533Z,72.40
2023-03-15T15:13:46.460Z,72.40
2023-03-15T15:14:45.437Z,72.30
2023-03-15T15:15:55.298Z,72.40
2023-03-15T15:16:46.497Z,72.09
2023-03-15T15:17:45.402Z,73.02
2023-03-15T15:18:45.380Z,73.12
2023-03-15T15:19:47.030Z,72.50
2023-03-15T15:20:45.606Z,72.40
2023-03-15T15:21:45.434Z,73.16
2023-03-15T15:22:45.320Z,73.05
2023-03-15T15:23:57.430Z,73.36
2023-03-15T15:24:46.288Z,73.95
2023-03-15T15:25:46.758Z,73.47
2023-03-15T15:26:45.280Z,73.64
2023-03-15T15:27:45.362Z,73.64
2023-03-15T15:28:45.241Z,73.68
2023-03-15T15:29:45.262Z,74.71
2023-03-15T15:30:45.216Z,74.95
2023-03-15T15:31:45.265Z,76.12
2023-03-15T15:32:45.248Z,76.84
2023-03-15T15:33:45.345Z,77.91
2023-03-15T15:34:45.171Z,79.29
2023-03-15T15:35:45.215Z,80.22
2023-03-15T15:36:45.145Z,81.19
2023-03-15T15:37:45.153Z,82.78
2023-03-15T15:38:45.144Z,84.01
2023-03-15T15:39:45.164Z,84.43
2023-03-15T15:40:45.131Z,85.16
2023-03-15T15:41:45.089Z,85.88
2023-03-15T15:42:45.064Z,86.33
2023-03-15T15:43:45.077Z,87.16
2023-03-15T15:44:45.043Z,87.68
2023-03-15T15:45:45.103Z,87.99
2023-03-15T15:46:45.038Z,88.51
2023-03-15T15:47:45.022Z,89.13
2023-03-15T15:48:45.009Z,90.20
2023-03-15T15:49:45.010Z,92.53
2023-03-15T15:50:45.100Z,94.29
2023-03-15T15:51:44.959Z,95.57
2023-03-15T15:52:44.932Z,96.92
2023-03-15T15:53:44.939Z,98.21
2023-03-15T15:54:44.902Z,99.35
2023-03-15T15:55:44.967Z,99.99
2023-03-15T15:56:44.888Z,99.99
2023-03-15T15:57:44.992Z,99.99
2023-03-15T15:58:44.861Z,99.99
2023-03-15T15:59:44.868Z,99.99
2023-03-15T16:00:44.849Z,99.99
2023-03-15T16:01:58.912Z,99.99
2023-03-15T16:02:45.828Z,99.99
2023-03-15T16:03:44.929Z,99.99
2023-03-15T16:04:44.786Z,99.99
2023-03-15T16:05:44.792Z,99.99
2023-03-15T16:06:44.754Z,99.99
2023-03-15T16:07:44.831Z,99.99
2023-03-15T16:08:44.724Z,99.99
2023-03-15T16:09:44.757Z,99.99
2023-03-15T16:10:44.715Z,99.99
2023-03-15T16:11:44.724Z,99.99
2023-03-15T16:12:44.711Z,99.99
2023-03-15T16:13:44.721Z,99.99
2023-03-15T16:14:44.672Z,99.99
2023-03-15T16:15:44.719Z,99.99
2023-03-15T16:16:44.826Z,99.99
2023-03-15T16:17:44.662Z,99.99
2023-03-15T16:18:44.668Z,99.99
2023-03-15T16:19:44.682Z,99.99
2023-03-15T16:20:44.606Z,99.99
2023-03-15T16:21:44.594Z,99.99
2023-03-15T16:22:44.541Z,99.99
2023-03-15T16:23:44.558Z,99.99
2023-03-15T16:24:44.628Z,99.99
2023-03-15T16:25:44.528Z,99.99
2023-03-15T16:26:44.574Z,99.99
2023-03-15T16:27:44.505Z,99.99
2023-03-15T16:28:44.492Z,99.99
2023-03-15T16:29:44.487Z,99.99
2023-03-15T16:30:46.661Z,99.99
2023-03-15T16:31:44.457Z,99.99
2023-03-15T16:32:45.078Z,99.99
2023-03-15T16:33:44.481Z,99.99
2023-03-15T16:34:44.395Z,99.99
2023-03-15T16:35:44.446Z,99.99
2023-03-15T16:36:45.070Z,99.99
2023-03-15T16:37:44.396Z,99.99
2023-03-15T16:38:44.355Z,99.99
2023-03-15T16:39:44.343Z,99.99
2023-03-15T16:40:44.423Z,99.99
2023-03-15T16:41:44.337Z,99.99
2023-03-15T16:42:44.309Z,99.99
2023-03-15T16:43:44.306Z,99.99
2023-03-15T16:44:44.272Z,99.99
2023-03-15T16:45:44.282Z,99.99
2023-03-15T16:46:44.356Z,99.99
2023-03-15T16:47:44.243Z,99.99
2023-03-15T16:48:44.211Z,99.99
2023-03-15T16:49:44.264Z,99.99
2023-03-15T16:50:44.235Z,99.99
2023-03-15T16:51:44.201Z,99.99
2023-03-15T16:52:44.221Z,99.99
2023-03-15T16:53:44.185Z,99.99
2023-03-15T16:54:44.153Z,99.99
2023-03-15T16:55:44.129Z,99.99
2023-03-15T16:56:44.115Z,99.99
2023-03-15T16:57:44.126Z,99.99
2023-03-15T16:58:44.129Z,99.99
2023-03-15T16:59:44.112Z,99.99
2023-03-15T17:00:44.118Z,99.99
2023-03-15T17:01:44.088Z,99.37
2023-03-15T17:02:44.061Z,98.64
2023-03-15T17:03:44.029Z,98.64
2023-03-15T17:04:44.039Z,98.95
2023-03-15T17:05:44.005Z,99.47
2023-03-15T17:06:44.033Z,99.26
2023-03-15T17:07:44.013Z,99.10
2023-03-15T17:08:43.946Z,98.79
2023-03-15T17:09:43.965Z,98.48
2023-03-15T17:10:43.975Z,98.48
2023-03-15T17:11:43.993Z,98.69
2023-03-15T17:12:43.914Z,98.58
2023-03-15T17:13:43.921Z,98.38
2023-03-15T17:14:43.876Z,98.38
2023-03-15T17:15:51.014Z,98.38
2023-03-15T17:16:43.901Z,98.90
2023-03-15T17:17:43.866Z,99.10
2023-03-15T17:18:43.876Z,98.69
2023-03-15T17:19:43.992Z,98.17
2023-03-15T17:20:43.806Z,98.48
2023-03-15T17:21:43.873Z,98.90
2023-03-15T17:22:43.806Z,98.69
2023-03-15T17:23:43.829Z,98.58
2023-03-15T17:24:43.791Z,98.79
2023-03-15T17:25:43.766Z,98.38
2023-03-15T17:26:43.930Z,97.24
2023-03-15T17:27:43.804Z,96.82
2023-03-15T17:28:43.754Z,96.72
2023-03-15T17:29:43.703Z,96.41
2023-03-15T17:30:43.715Z,96.20
2023-03-15T17:31:43.761Z,95.78
2023-03-15T17:32:43.704Z,95.37
2023-03-15T17:33:43.726Z,94.89
2023-03-15T17:34:43.624Z,94.89
2023-03-15T17:35:46.948Z,95.00
2023-03-15T17:36:43.599Z,94.89
2023-03-15T17:37:43.593Z,95.20
2023-03-15T17:38:43.641Z,95.31
2023-03-15T17:39:43.597Z,95.00
2023-03-15T17:40:43.546Z,94.68
2023-03-15T17:41:43.601Z,94.94
2023-03-15T17:42:43.610Z,95.77
2023-03-15T17:43:43.528Z,95.15
2023-03-15T17:44:43.503Z,94.94
2023-03-15T17:45:43.572Z,94.94
2023-03-15T17:46:43.578Z,95.15
2023-03-15T17:47:43.549Z,95.29
2023-03-15T17:48:43.449Z,95.50
2023-03-15T17:49:43.528Z,96.12
2023-03-15T17:50:43.451Z,96.54
2023-03-15T17:51:43.423Z,96.58
2023-03-15T17:52:43.485Z,96.79